-->

Nearby METAR Reports

 

EBAW - Antwerpen, Belgium
Distance from station: NW 22km
Updated: 2021-10-18 22:20
Clear
Clear
 Wind from S
Wind: S 9 km/h
Temperature: 14°C
Dew Point: 10°C
Humidity: 77%
Barometer: 1019 hPa
Summary: Clear
Visibility: greater than 10 km
2021/10/18 20:20 EBAW 182020Z AUTO 19005KT CAVOK 14/10 Q1019
EBBR - Brussel, Belgium
Distance from station: SW 24km
Updated: 2021-10-18 22:20
Mostly cloudy
Mostly cloudy
 Wind from SSW
Wind: SSW 19 km/h
Temperature: 15°C
Dew Point: 11°C
Humidity: 77%
Barometer: 1019 hPa
Clouds: Mostly cloudy
Visibility: 10 km
Cloud details: Mostly cloudy 823 m
2021/10/18 20:20 EBBR 182020Z 20010KT 9999 BKN027 15/11 Q1019 NOSIG
 
EBDT - Schaffen, Belgium
Distance from station: ESE 26km
Updated: 2021-10-18 22:25
Overcast
Overcast
 Wind from S
Wind: S 11 km/h
Temperature: 13°C
Dew Point: 10°C
Humidity: 82%
Barometer: 1020 hPa
Clouds: Overcast
Visibility: 10 km
Cloud details: Overcast 5182 m
2021/10/18 20:25 EBDT 182025Z AUTO 17006KT 9999 OVC170/// 13/10 Q1020 BLU
EBBE - Beauvechain, Belgium
Distance from station: S 36km
Updated: 2021-10-18 22:33
Mostly cloudy
Mostly cloudy
 Wind from S
Wind: S 19 km/h
Temperature: 14°C
Dew Point: 11°C
Humidity: 82%
Barometer: 1020 hPa
Clouds: Mostly cloudy
Visibility: 10 km
Cloud details: Mostly cloudy 732 m
Mostly cloudy 853 m
2021/10/18 20:33 EBBE 182033Z AUTO 19010KT 9999 BKN024/// BKN028/// 14/11 Q1020 WHT
 
EHWO - Woensdrecht Rnla, Netherlands
Distance from station: NNW 50km
Updated: 2021-10-18 22:25
Overcast
Overcast
 Wind from SSW
Wind: SSW 17 km/h
Temperature: 16°C
Dew Point: 12°C
Humidity: 77%
Barometer: 1018 hPa
Clouds: Overcast
Visibility: 10 km
Cloud details: Mostly cloudy 762 m
Overcast 884 m
2021/10/18 20:25 EHWO 182025Z AUTO 21009KT 160V230 9999 BKN025 OVC029 16/12 Q1018 BLU
EBBL - Kleine-Brogel, Belgium
Distance from station: ENE 54km
Updated: 2021-10-18 22:33
Mostly cloudy
Mostly cloudy
 Wind from S
Wind: S 7 km/h
Temperature: 14°C
Dew Point: 10°C
Humidity: 77%
Barometer: 1020 hPa
Clouds: Mostly cloudy
Visibility: 10 km
Cloud details: Partly cloudy 1067 m
Mostly cloudy 6096 m
2021/10/18 20:33 EBBL 182033Z 19004KT 9999 SCT035 BKN200 14/10 Q1020 BLU FCST CANCEL
 
EHGR - Gilze-Rijen Rnla, Netherlands
Distance from station: NNE 57km
Updated: 2021-10-18 22:25
Overcast
Overcast
 Wind from S
Wind: S 11 km/h
Temperature: 14°C
Dew Point: 11°C
Humidity: 82%
Barometer: 1019 hPa
Clouds: Overcast
Visibility: 10 km
Cloud details: Few Clouds 1372 m
Overcast 3658 m
2021/10/18 20:25 EHGR 182025Z AUTO 19006KT 140V230 9999 FEW045 OVC120 14/11 Q1019 BLU TEMPO SCT044
EHEH - Eindhoven Rnlafb, Netherlands
Distance from station: NE 63km
Updated: 2021-10-18 22:25
Overcast
Overcast
 Wind from SSE
Wind: SSE 13 km/h
Temperature: 14°C
Dew Point: 10°C
Humidity: 77%
Barometer: 1019 hPa
Clouds: Overcast
Visibility: 10 km
Cloud details: Overcast 4267 m
2021/10/18 20:25 EHEH 182025Z AUTO 16007KT 120V230 9999 OVC140 14/10 Q1019 BLU NOSIG
 
EBCI - Charleroi, Belgium
Distance from station: SSW 70km
Updated: 2021-10-18 22:20
Mostly cloudy
Mostly cloudy
 Wind from S
Wind: S 17 km/h
Temperature: 14°C
Dew Point: 11°C
Humidity: 82%
Barometer: 1021 hPa
Clouds: Mostly cloudy
Visibility: 10 km
Cloud details: Mostly cloudy 640 m
2021/10/18 20:20 EBCI 182020Z 19009KT 9999 BKN021 14/11 Q1021 NOSIG
EBLG - Bierset, Belgium
Distance from station: SE 72km
Updated: 2021-10-18 22:20
Clear
Clear
 Wind from S
Wind: S 17 km/h
Temperature: 14°C
Dew Point: 9°C
Humidity: 72%
Barometer: 1021 hPa
Summary: Clear
Visibility: greater than 10 km
2021/10/18 20:20 EBLG 182020Z 18009KT CAVOK 14/09 Q1021 NOSIG
Benelux Weer Netwerk cwop awekas hwa wcloud pwsweather wow wow